Ana Sayfa
METAR-TAF:

METAR-TAF

Havaalanları :

Johnston County Airport

Smithfield, Kuzey Carolina, Amerika Birleşik Devletleri

Enlem: 35-32-27N, Boylam: 078-23-25W, yükseklik: 50 m

Güncel hava durumu gözlemi

Rapor saat 23:35 UTC de 19 dakika önce yapıldı.
Sakin rüzgar
Sıcaklık 13°C
Nem 94%
Basınç 1017 hPa
Görüş mesafesi: 16.1 km
Açık gökyüzü

METAR: KJNX 232335Z AUTO 00000KT 10SM CLR 13/12 A3004 RMK AO2

Saat: 19:54 (23:54 UTC)


TAF: eksik

4.000'den fazla havaalanı için hava durumu gözlemleri ve tahminleri (METAR ve TAF raporları).

Kullanılabilir istasyonlar harita üzerinde sarı ve kırmızı noktalarla gösterilir.

İstasyonun adını görmek için fareyi noktanın üzerinde gezdirin.

Sonrasında hava gözlem ve tahminlerini görmek için tıklayın.

Haritayı değiştirmek için: yaklaştırmak için siyah artı işaretli yeşil düğmeye ve uzaklaştırmak için de eksi işaretli düğmeye hızla tıklayın; bitişik haritalar için yeşil okları kullanın.


METAR-TAF: